createdAt,value
2019-05-14T04:02:04.751Z,664
2019-05-14T04:05:34.805Z,693
2019-05-14T04:09:05.062Z,721
2019-05-14T04:12:35.106Z,747
2019-05-14T04:16:05.282Z,773
2019-05-14T04:19:39.027Z,797
2019-05-14T04:23:08.970Z,819
2019-05-14T04:26:56.106Z,841
2019-05-14T04:30:12.910Z,862
2019-05-14T04:33:43.088Z,883
2019-05-14T04:37:13.573Z,902
2019-05-14T04:40:43.751Z,919
2019-05-14T04:44:14.904Z,936
2019-05-14T04:47:45.493Z,952
2019-05-14T04:51:15.720Z,969
2019-05-14T04:54:45.901Z,983
2019-05-14T04:58:16.258Z,998
2019-05-14T05:01:49.260Z,1014
2019-05-14T05:05:20.726Z,1026
2019-05-14T05:08:51.945Z,1039
2019-05-14T05:12:23.117Z,1051
2019-05-14T05:15:53.309Z,1064
2019-05-14T05:19:23.691Z,1077
2019-05-14T05:22:53.919Z,1086
2019-05-14T05:26:24.070Z,1099
2019-05-14T05:29:54.294Z,1108
2019-05-14T05:33:24.452Z,1121
2019-05-14T05:36:54.820Z,1131
2019-05-14T05:40:25.041Z,1144
2019-05-14T05:43:55.290Z,1156
2019-05-14T05:47:25.388Z,1170
2019-05-14T05:50:55.570Z,1181
2019-05-14T05:54:26.002Z,1196
2019-05-14T05:57:58.512Z,1205
2019-05-14T06:01:41.567Z,1216
2019-05-14T06:05:02.589Z,1229
2019-05-14T06:08:32.812Z,1238
2019-05-14T06:12:02.990Z,1250
2019-05-14T06:15:45.304Z,1261
2019-05-14T06:19:09.229Z,1280
2019-05-14T06:22:40.385Z,1280
2019-05-14T06:26:12.796Z,1294
2019-05-14T06:29:44.147Z,1305
2019-05-14T06:33:14.270Z,1315
2019-05-14T06:36:44.428Z,1332
2019-05-14T06:40:19.086Z,1341
2019-05-14T06:43:48.964Z,1365
2019-05-14T06:47:19.922Z,1368
2019-05-14T06:50:51.105Z,1378
2019-05-14T06:54:22.852Z,1394
2019-05-14T06:57:54.036Z,1413
2019-05-14T07:01:24.199Z,1422
2019-05-14T07:04:54.413Z,1432
2019-05-14T07:08:24.536Z,1546
2019-05-14T07:11:54.855Z,1454
2019-05-14T07:15:24.960Z,1457
2019-05-14T07:18:56.081Z,1468
2019-05-14T07:22:28.259Z,1478
2019-05-14T07:25:59.323Z,1500
2019-05-14T07:29:30.681Z,1515
2019-05-14T07:33:01.888Z,1523
2019-05-14T07:36:32.087Z,1546
2019-05-14T07:40:02.274Z,1570
2019-05-14T07:43:32.546Z,1593
2019-05-14T07:47:02.712Z,1618
2019-05-14T07:50:32.871Z,1644
2019-05-14T07:54:02.984Z,1683
2019-05-14T07:57:33.078Z,1701
2019-05-14T08:01:03.131Z,1732
2019-05-14T08:04:33.217Z,1753
2019-05-14T08:08:05.276Z,1766
2019-05-14T08:11:35.419Z,1805
2019-05-14T08:15:17.546Z,1837
2019-05-14T08:18:42.555Z,1868
2019-05-14T08:22:12.763Z,1904
2019-05-14T08:25:42.961Z,1954
2019-05-14T08:29:13.166Z,1999
2019-05-14T08:32:43.492Z,2006
2019-05-14T08:36:13.614Z,2073
2019-05-14T08:39:43.711Z,2141
2019-05-14T08:43:13.776Z,2227
2019-05-14T08:46:48.121Z,2335
2019-05-14T08:50:18.670Z,2377
2019-05-14T08:53:50.242Z,2473
2019-05-14T08:57:21.085Z,2778
2019-05-14T09:00:51.036Z,4303
2019-05-14T09:04:23.300Z,3191
2019-05-14T09:07:54.405Z,5147
2019-05-14T09:11:34.222Z,4202
2019-05-14T09:15:00.578Z,9396
2019-05-14T09:18:32.009Z,4766
2019-05-14T09:22:01.924Z,31280
2019-05-14T09:25:31.982Z,33824
2019-05-14T09:29:18.101Z,34928
2019-05-14T09:32:35.079Z,7370
2019-05-14T09:36:17.799Z,65535
2019-05-14T09:39:41.381Z,8752
2019-05-14T09:43:12.346Z,65535
2019-05-14T09:46:42.373Z,13217
2019-05-14T09:50:20.059Z,3214
2019-05-14T09:53:49.237Z,65535
2019-05-14T09:57:20.002Z,4789
2019-05-14T10:00:51.045Z,58808
2019-05-14T10:04:21.379Z,15638
2019-05-14T10:07:52.331Z,7826
2019-05-14T10:11:22.350Z,4956
2019-05-14T10:14:52.332Z,13167
2019-05-14T10:18:23.342Z,65535
2019-05-14T10:21:53.481Z,65535
2019-05-14T10:25:23.443Z,65535
2019-05-14T10:28:53.422Z,65535
2019-05-14T10:32:23.470Z,65535
2019-05-14T10:35:53.433Z,65535
2019-05-14T10:39:23.571Z,65535
2019-05-14T10:42:54.535Z,10130
2019-05-14T10:46:24.501Z,7477
2019-05-14T10:49:54.473Z,7950
2019-05-14T10:53:24.469Z,7327
2019-05-14T10:56:54.629Z,18920
2019-05-14T11:00:24.609Z,26272
2019-05-14T11:03:54.600Z,29216
2019-05-14T11:07:24.610Z,38200
2019-05-14T11:11:03.017Z,37032
2019-05-14T11:14:31.856Z,39656
2019-05-14T11:18:02.774Z,43856
2019-05-14T11:21:32.774Z,48576
2019-05-14T11:25:03.748Z,49656
2019-05-14T11:28:33.891Z,49232
2019-05-14T11:32:03.865Z,52368
2019-05-14T11:35:33.854Z,54080
2019-05-14T11:39:05.825Z,55160
2019-05-14T11:42:38.628Z,56640
2019-05-14T11:46:08.576Z,56736
2019-05-14T11:49:37.454Z,58896
2019-05-14T11:53:08.594Z,60200
2019-05-14T11:56:41.741Z,59896
2019-05-14T12:00:12.553Z,60696
2019-05-14T12:03:42.544Z,59120
2019-05-14T12:07:12.542Z,58904
2019-05-14T12:10:42.517Z,59824
2019-05-14T12:14:12.506Z,53680
2019-05-14T12:17:42.736Z,28896
2019-05-14T12:21:12.688Z,6819
2019-05-14T12:24:42.687Z,5375
2019-05-14T12:28:14.708Z,9087
2019-05-14T12:31:44.690Z,7953
2019-05-14T12:35:14.924Z,39768
2019-05-14T12:38:44.925Z,7986
2019-05-14T12:42:14.927Z,8995
2019-05-14T12:45:44.890Z,43424
2019-05-14T12:49:14.887Z,13619
2019-05-14T12:52:45.000Z,5187
2019-05-14T12:56:14.997Z,7711
2019-05-14T12:59:44.974Z,10968
2019-05-14T13:03:14.950Z,7102
2019-05-14T13:06:44.930Z,7083
2019-05-14T13:10:15.100Z,11322
2019-05-14T13:13:48.759Z,11860
2019-05-14T13:17:18.680Z,11452
2019-05-14T13:20:49.010Z,4755
2019-05-14T13:24:20.004Z,3731
2019-05-14T13:27:50.681Z,8949
2019-05-14T13:31:21.659Z,11803
2019-05-14T13:34:51.640Z,10199
2019-05-14T13:38:21.622Z,4871
2019-05-14T13:41:52.748Z,4795
2019-05-14T13:45:22.767Z,6588
2019-05-14T13:48:52.814Z,6154
2019-05-14T13:52:22.833Z,5564
2019-05-14T13:55:57.760Z,5532
2019-05-14T13:59:27.213Z,6274
2019-05-14T14:02:59.221Z,6154
2019-05-14T14:06:29.326Z,5272
2019-05-14T14:10:00.351Z,5065
2019-05-14T14:13:32.473Z,4917
2019-05-14T14:17:03.470Z,4788
2019-05-14T14:20:02.815Z,4755
2019-05-14T14:23:34.739Z,4658
2019-05-14T14:27:04.775Z,4616
2019-05-14T14:30:34.842Z,4443
2019-05-14T14:34:04.934Z,4355
2019-05-14T14:37:34.977Z,4340
2019-05-14T14:41:05.165Z,4227
2019-05-14T14:44:36.408Z,4152
2019-05-14T14:48:11.433Z,4200
2019-05-14T14:51:44.580Z,4050
2019-05-14T14:55:12.582Z,3983
2019-05-14T14:58:42.616Z,2970
2019-05-14T15:02:13.670Z,4060
2019-05-14T15:05:43.684Z,4029
2019-05-14T15:09:13.700Z,4109
2019-05-14T15:12:43.815Z,4088
2019-05-14T15:16:15.920Z,4120
2019-05-14T15:19:45.857Z,4235
2019-05-14T15:23:15.966Z,4343
2019-05-14T15:26:46.033Z,4265
2019-05-14T15:30:16.191Z,4312
2019-05-14T15:33:50.224Z,4366
2019-05-14T15:37:19.004Z,4379
2019-05-14T15:40:49.281Z,4389
2019-05-14T15:44:20.326Z,4286
2019-05-14T15:47:51.436Z,4280
2019-05-14T15:51:22.495Z,4338
2019-05-14T15:54:53.483Z,4443
2019-05-14T15:58:24.496Z,4459
2019-05-14T16:01:54.678Z,4629
2019-05-14T16:05:24.703Z,4526
2019-05-14T16:08:54.763Z,4466
2019-05-14T16:12:24.799Z,4565
2019-05-14T16:15:54.858Z,4570
2019-05-14T16:19:24.928Z,4459
2019-05-14T16:22:54.944Z,4839
2019-05-14T16:26:24.940Z,4988
2019-05-14T16:29:54.920Z,5206
2019-05-14T16:33:24.902Z,5578
2019-05-14T16:36:58.422Z,5689
2019-05-14T16:40:28.859Z,5567
2019-05-14T16:43:59.560Z,5533
2019-05-14T16:47:30.573Z,5540
2019-05-14T16:51:01.846Z,5364
2019-05-14T16:54:32.695Z,5181
2019-05-14T16:58:02.665Z,5242
2019-05-14T17:01:34.626Z,5353
2019-05-14T17:05:04.592Z,5342
2019-05-14T17:08:34.805Z,4605
2019-05-14T17:12:04.789Z,3571
2019-05-14T17:15:34.740Z,4073
2019-05-14T17:19:04.758Z,3705
2019-05-14T17:22:35.754Z,2463
2019-05-14T17:26:05.717Z,2608
2019-05-14T17:29:35.720Z,3728
2019-05-14T17:33:05.705Z,3846
2019-05-14T17:36:38.787Z,3686
2019-05-14T17:40:09.110Z,2974
2019-05-14T17:43:39.477Z,2684
2019-05-14T17:47:08.954Z,2922
2019-05-14T17:50:39.941Z,1936
2019-05-14T17:54:10.898Z,1515
2019-05-14T17:57:47.129Z,1426
2019-05-14T18:01:18.181Z,1481
2019-05-14T18:04:48.754Z,1285
2019-05-14T18:08:18.948Z,1293
2019-05-14T18:11:49.901Z,1106
2019-05-14T18:15:19.877Z,888
2019-05-14T18:18:50.834Z,759
2019-05-14T18:22:21.777Z,664
2019-05-14T18:26:04.591Z,604
2019-05-14T18:29:29.473Z,534
2019-05-14T18:33:00.510Z,458
2019-05-14T18:36:31.554Z,408
2019-05-14T18:40:01.545Z,367
2019-05-14T18:43:33.061Z,319
2019-05-14T18:47:03.053Z,275
2019-05-14T18:50:33.034Z,230
2019-05-14T18:54:03.026Z,186
2019-05-14T18:57:33.033Z,149
2019-05-14T19:01:04.060Z,116
2019-05-14T19:04:34.030Z,89
2019-05-14T19:08:03.988Z,67
2019-05-14T19:11:33.959Z,49
2019-05-14T19:15:03.937Z,35
2019-05-14T19:18:34.046Z,25
2019-05-14T19:22:04.004Z,16
2019-05-14T19:25:33.978Z,11
2019-05-14T19:29:03.943Z,8
2019-05-14T19:32:33.918Z,5
2019-05-14T19:36:05.227Z,3
2019-05-14T19:39:35.205Z,2
2019-05-14T19:43:05.239Z,1
2019-05-14T19:46:35.204Z,1
2019-05-14T19:50:05.268Z,1
2019-05-14T19:53:35.223Z,0
2019-05-14T19:57:05.214Z,0
2019-05-14T20:00:38.124Z,0
2019-05-14T20:04:09.290Z,0
2019-05-14T20:07:39.928Z,0
2019-05-14T20:11:10.759Z,0
2019-05-14T20:14:40.712Z,0
2019-05-14T20:18:11.672Z,0
2019-05-14T20:21:42.634Z,0
2019-05-14T20:25:25.414Z,0
2019-05-14T20:28:58.897Z,0
2019-05-14T20:32:27.372Z,0
2019-05-14T20:35:59.014Z,0
2019-05-14T20:39:35.831Z,0
2019-05-14T20:43:05.797Z,0
2019-05-14T20:46:38.022Z,0
2019-05-14T20:50:08.827Z,0
2019-05-14T20:53:39.597Z,0
2019-05-14T20:57:23.225Z,0
2019-05-14T21:00:44.691Z,0
2019-05-14T21:04:14.642Z,0
2019-05-14T21:07:44.736Z,0
2019-05-14T21:11:15.679Z,0
2019-05-14T21:14:49.097Z,0
2019-05-14T21:18:33.200Z,0
2019-05-14T21:21:52.716Z,0
2019-05-14T21:25:23.650Z,0
2019-05-14T21:28:53.597Z,0
2019-05-14T21:32:23.559Z,0
2019-05-14T21:35:53.517Z,0
2019-05-14T21:39:23.583Z,0
2019-05-14T21:42:53.554Z,0
2019-05-14T21:46:24.511Z,0
2019-05-14T21:49:54.472Z,0
2019-05-14T21:53:24.434Z,0
2019-05-14T21:56:54.513Z,0
